createdAt,value
2022-10-17T00:03:06.325Z,19.26
2022-10-17T00:08:10.464Z,19.31
2022-10-17T00:13:13.568Z,19.43
2022-10-17T00:18:16.367Z,19.47
2022-10-17T00:23:19.747Z,19.53
2022-10-17T00:28:22.509Z,19.54
2022-10-17T00:33:26.411Z,19.49
2022-10-17T00:38:29.314Z,19.37
2022-10-17T00:43:54.132Z,19.27
2022-10-17T00:48:59.393Z,19.15
2022-10-17T00:54:04.026Z,19.18
2022-10-17T00:59:09.508Z,19.25
2022-10-17T01:04:12.921Z,19.18
2022-10-17T01:09:15.720Z,19.11
2022-10-17T01:14:27.639Z,19.14
2022-10-17T01:20:01.381Z,19.20
2022-10-17T01:25:23.932Z,19.12
2022-10-17T01:30:51.818Z,19.11
2022-10-17T01:36:43.676Z,19.13
2022-10-17T01:42:06.853Z,18.71
2022-10-17T01:47:13.609Z,16.62
2022-10-17T01:52:24.130Z,15.94
2022-10-17T01:57:36.134Z,17.08
2022-10-17T02:02:40.999Z,17.62
2022-10-17T02:07:43.799Z,17.96
2022-10-17T02:13:02.737Z,18.07
2022-10-17T02:18:30.054Z,18.14
2022-10-17T02:23:51.186Z,18.23
2022-10-17T02:29:19.586Z,18.36
2022-10-17T02:34:28.021Z,17.01
2022-10-17T02:39:33.075Z,16.06
2022-10-17T02:44:42.417Z,17.22
2022-10-17T02:49:50.346Z,17.78
2022-10-17T02:55:18.447Z,17.49
2022-10-17T03:00:23.913Z,15.41
2022-10-17T03:05:29.602Z,15.28
2022-10-17T03:10:32.383Z,16.55
2022-10-17T03:15:35.582Z,17.08
2022-10-17T03:20:38.397Z,17.33
2022-10-17T03:25:41.410Z,17.60
2022-10-17T03:30:44.319Z,16.70
2022-10-17T03:35:47.245Z,14.85
2022-10-17T03:40:56.408Z,14.53
2022-10-17T03:46:00.027Z,16.02
2022-10-17T03:51:06.276Z,16.62
2022-10-17T03:56:20.859Z,16.80
2022-10-17T04:01:24.432Z,15.13
2022-10-17T04:06:27.270Z,14.50
2022-10-17T04:11:30.181Z,15.78
2022-10-17T04:16:33.082Z,16.41
2022-10-17T04:21:35.878Z,15.51
2022-10-17T04:26:38.680Z,13.72
2022-10-17T04:31:41.481Z,13.28
2022-10-17T04:36:44.948Z,14.80
2022-10-17T04:41:48.005Z,15.59
2022-10-17T04:46:50.811Z,16.00
2022-10-17T04:51:53.610Z,16.31
2022-10-17T04:56:56.413Z,15.80
2022-10-17T05:01:59.216Z,13.94
2022-10-17T05:07:02.118Z,13.52
2022-10-17T05:12:08.008Z,15.05
2022-10-17T05:17:13.254Z,15.77
2022-10-17T05:22:16.053Z,16.15
2022-10-17T05:27:19.160Z,16.57
2022-10-17T05:32:22.172Z,15.91
2022-10-17T05:37:24.971Z,14.50
2022-10-17T05:42:28.209Z,14.70
2022-10-17T05:47:32.091Z,16.78
2022-10-17T05:52:35.441Z,18.30
2022-10-17T05:57:38.737Z,18.19
2022-10-17T06:02:42.047Z,17.60
2022-10-17T06:07:44.855Z,17.09
2022-10-17T06:12:47.656Z,18.99
2022-10-17T06:17:51.275Z,21.16
2022-10-17T06:22:54.485Z,21.91
2022-10-17T06:27:57.403Z,21.70
2022-10-17T06:33:00.409Z,23.23
2022-10-17T06:38:04.231Z,22.79
2022-10-17T06:43:07.546Z,22.44
2022-10-17T06:48:10.547Z,22.16
2022-10-17T06:53:13.758Z,22.32
2022-10-17T06:58:16.903Z,23.92
2022-10-17T07:03:19.770Z,23.39
2022-10-17T07:08:23.289Z,22.98
2022-10-17T07:13:26.198Z,22.43
2022-10-17T07:18:28.994Z,21.39
2022-10-17T07:23:32.205Z,20.26
2022-10-17T07:28:41.127Z,19.20
2022-10-17T07:38:53.001Z,21.07
2022-10-17T07:43:56.234Z,21.26
2022-10-17T07:48:59.428Z,20.17
2022-10-17T07:54:02.328Z,19.59
2022-10-17T07:59:08.384Z,19.92
2022-10-17T08:04:12.441Z,21.61
2022-10-17T08:09:15.909Z,21.92
2022-10-17T08:14:18.757Z,22.15
2022-10-17T08:19:21.665Z,21.90
2022-10-17T08:24:24.659Z,21.48
2022-10-17T08:29:28.173Z,21.14
2022-10-17T08:34:31.005Z,21.33
2022-10-17T08:39:33.897Z,23.16
2022-10-17T08:44:44.078Z,23.52
2022-10-17T08:49:58.174Z,23.34
2022-10-17T08:55:01.387Z,23.32
2022-10-17T09:00:14.697Z,23.81
2022-10-17T09:05:30.614Z,25.82
2022-10-17T09:10:54.193Z,28.25
2022-10-17T09:16:33.657Z,31.36
2022-10-17T09:21:46.289Z,32.55
2022-10-17T09:26:51.042Z,33.32
2022-10-17T09:32:05.166Z,34.54
2022-10-17T09:37:14.683Z,35.46
2022-10-17T09:42:23.205Z,36.01
2022-10-17T09:47:32.246Z,35.79
2022-10-17T09:52:40.346Z,35.54
2022-10-17T09:57:55.364Z,35.59
2022-10-17T10:03:21.305Z,35.67
2022-10-17T10:08:28.408Z,36.88
2022-10-17T10:13:34.789Z,37.18
2022-10-17T10:18:37.903Z,36.80
2022-10-17T10:23:43.177Z,36.83
2022-10-17T10:28:54.534Z,36.33
2022-10-17T10:34:00.098Z,36.10
2022-10-17T10:39:33.658Z,36.19
2022-10-17T10:44:39.712Z,36.53
2022-10-17T10:49:44.279Z,37.26
2022-10-17T10:55:05.306Z,37.56
2022-10-17T11:00:23.363Z,37.69
2022-10-17T11:06:12.148Z,37.89
2022-10-17T11:11:34.098Z,37.70
2022-10-17T11:16:55.646Z,37.66
2022-10-17T11:22:23.986Z,37.60
2022-10-17T11:27:30.812Z,37.08
2022-10-17T11:32:43.039Z,37.35
2022-10-17T11:37:54.975Z,36.79
2022-10-17T11:43:02.489Z,36.96
2022-10-17T11:48:13.180Z,37.22
2022-10-17T11:53:30.161Z,37.19
2022-10-17T11:59:11.008Z,37.00
2022-10-17T12:04:27.426Z,36.87
2022-10-17T12:09:41.098Z,36.87
2022-10-17T12:14:46.904Z,37.00
2022-10-17T12:19:49.998Z,37.11
2022-10-17T12:25:04.238Z,37.07
2022-10-17T12:30:13.693Z,36.61
2022-10-17T12:35:21.746Z,34.13
2022-10-17T12:40:37.217Z,33.61
2022-10-17T12:45:51.611Z,34.01
2022-10-17T12:51:34.853Z,34.00
2022-10-17T12:56:39.931Z,33.97
2022-10-17T13:01:48.076Z,32.49
2022-10-17T13:06:57.174Z,32.13
2022-10-17T13:12:04.794Z,33.02
2022-10-17T13:17:20.804Z,33.23
2022-10-17T13:22:27.506Z,32.57
2022-10-17T13:27:34.184Z,32.63
2022-10-17T13:32:38.010Z,31.94
2022-10-17T13:37:50.274Z,30.57
2022-10-17T13:42:58.053Z,29.36
2022-10-17T13:48:08.345Z,28.96
2022-10-17T13:53:19.221Z,28.91
2022-10-17T13:58:22.378Z,28.26
2022-10-17T14:03:32.558Z,27.86
2022-10-17T14:09:01.740Z,28.41
2022-10-17T14:14:15.475Z,29.37
2022-10-17T14:19:24.989Z,29.43
2022-10-17T14:24:31.636Z,28.56
2022-10-17T14:29:52.855Z,28.16
2022-10-17T14:35:10.594Z,28.08
2022-10-17T14:40:26.381Z,27.13
2022-10-17T14:45:38.756Z,26.48
2022-10-17T14:56:00.659Z,24.99
2022-10-17T15:01:03.546Z,24.06
2022-10-17T15:06:18.543Z,23.24
2022-10-17T15:11:21.339Z,22.44
2022-10-17T15:16:26.184Z,21.78
2022-10-17T15:21:47.288Z,21.21
2022-10-17T15:26:50.547Z,20.72
2022-10-17T15:31:53.535Z,22.09
2022-10-17T15:36:56.572Z,22.15
2022-10-17T15:42:00.174Z,20.86
2022-10-17T15:47:02.965Z,20.80
2022-10-17T15:52:05.972Z,21.87
2022-10-17T15:57:18.194Z,21.05
2022-10-17T16:02:22.940Z,22.12
2022-10-17T16:07:25.852Z,21.85
2022-10-17T16:12:30.205Z,20.66
2022-10-17T16:17:33.056Z,21.70
2022-10-17T16:22:37.021Z,22.18
2022-10-17T16:27:39.923Z,20.77
2022-10-17T16:32:43.680Z,21.17
2022-10-17T16:37:47.681Z,21.93
2022-10-17T16:42:50.461Z,20.69
2022-10-17T16:47:53.736Z,20.65
2022-10-17T16:52:56.492Z,21.91
2022-10-17T16:58:00.139Z,21.81
2022-10-17T17:03:03.606Z,20.13
2022-10-17T17:08:10.350Z,19.90
2022-10-17T17:13:16.198Z,21.36
2022-10-17T17:18:19.515Z,21.10
2022-10-17T17:23:22.313Z,20.15
2022-10-17T17:28:26.399Z,21.45
2022-10-17T17:33:30.373Z,21.39
2022-10-17T17:38:35.228Z,20.49
2022-10-17T17:43:38.130Z,21.53
2022-10-17T17:48:41.940Z,20.54
2022-10-17T17:53:45.166Z,20.99
2022-10-17T17:58:54.523Z,21.87
2022-10-17T18:03:59.680Z,20.73
2022-10-17T18:09:02.726Z,21.10
2022-10-17T18:14:08.601Z,21.85
2022-10-17T18:19:12.004Z,20.88
2022-10-17T18:24:14.775Z,21.12
2022-10-17T18:29:17.885Z,21.82
2022-10-17T18:34:20.896Z,20.77
2022-10-17T18:39:24.413Z,21.12
2022-10-17T18:44:27.325Z,21.65
2022-10-17T18:49:30.228Z,20.69
2022-10-17T18:54:34.870Z,21.69
2022-10-17T18:59:37.777Z,21.41
2022-10-17T19:04:41.152Z,20.44
2022-10-17T19:09:43.989Z,21.46
2022-10-17T19:14:49.041Z,21.15
2022-10-17T19:19:53.379Z,20.81
2022-10-17T19:24:56.182Z,21.57
2022-10-17T19:29:59.289Z,20.90
2022-10-17T19:35:02.091Z,20.80
2022-10-17T19:40:06.150Z,21.68
2022-10-17T19:45:09.988Z,20.79
2022-10-17T19:50:12.852Z,20.53
2022-10-17T19:55:15.656Z,21.76
2022-10-17T20:00:18.562Z,21.15
2022-10-17T20:05:23.751Z,20.56
2022-10-17T20:10:28.975Z,21.39
2022-10-17T20:15:32.084Z,21.58
2022-10-17T20:20:35.970Z,20.87
2022-10-17T20:25:38.712Z,20.66
2022-10-17T20:30:46.570Z,21.52
2022-10-17T20:35:49.543Z,21.18
2022-10-17T20:40:52.338Z,20.21
2022-10-17T20:46:03.509Z,20.99
2022-10-17T20:51:09.363Z,21.41
2022-10-17T20:56:21.978Z,20.33
2022-10-17T21:01:26.512Z,20.72
2022-10-17T21:06:29.608Z,21.21
2022-10-17T21:11:32.763Z,19.97
2022-10-17T21:16:37.554Z,20.06
2022-10-17T21:21:43.017Z,21.00
2022-10-17T21:26:47.769Z,21.21
2022-10-17T21:31:51.176Z,19.83
2022-10-17T21:36:53.950Z,20.01
2022-10-17T21:41:56.889Z,21.07
2022-10-17T21:46:59.689Z,20.51
2022-10-17T21:52:06.996Z,19.77
2022-10-17T21:57:09.818Z,20.84
2022-10-17T22:02:14.858Z,20.07
2022-10-17T22:07:17.658Z,19.47
2022-10-17T22:12:20.458Z,20.47
2022-10-17T22:17:23.462Z,20.73
2022-10-17T22:22:26.265Z,19.40
2022-10-17T22:27:29.371Z,19.77
2022-10-17T22:32:32.587Z,20.69
2022-10-17T22:37:35.594Z,19.97
2022-10-17T22:42:38.392Z,19.17
2022-10-17T22:47:41.808Z,20.28
2022-10-17T22:52:44.609Z,20.75
2022-10-17T22:57:47.663Z,20.35
2022-10-17T23:02:54.411Z,18.89
2022-10-17T23:07:57.520Z,19.71
2022-10-17T23:13:00.321Z,20.52
2022-10-17T23:18:04.118Z,20.39
2022-10-17T23:23:06.951Z,19.09
2022-10-17T23:28:10.780Z,19.96
2022-10-17T23:33:14.397Z,20.62
2022-10-17T23:38:17.198Z,20.08
2022-10-17T23:43:20.207Z,19.24
2022-10-17T23:48:23.416Z,20.30
2022-10-17T23:53:27.495Z,20.54
2022-10-17T23:58:31.168Z,18.99
